Time;durP1;ratioP1;P1;durP2;ratioP2;P2;SDS_P1;SDS_P2;PMS_P1;PMS_P2;Temp;Humidity;BMP_temperature;BMP_pressure;BME280_temperature;BME280_humidity;BME280_pressure;Samples;Min_cycle;Max_cycle;Signal;HPM_P1;HPM_P2
2024/03/01 00:00:08;;;;;;;28.33;14.35;;;;;;;6.86;82.19;100017.81;5006282;28;20034;-72
2024/03/01 00:02:34;;;;;;;29.42;14.20;;;;;;;6.90;81.83;100008.81;4989920;28;20039;-72
2024/03/01 00:05:00;;;;;;;29.58;13.93;;;;;;;6.89;82.07;100007.97;5008782;28;20084;-72
2024/03/01 00:07:26;;;;;;;31.77;14.75;;;;;;;6.85;82.64;100006.66;4993692;28;20029;-72
2024/03/01 00:09:51;;;;;;;29.40;14.38;;;;;;;6.83;82.86;100003.44;5022619;28;20045;-72
2024/03/01 00:12:17;;;;;;;32.17;14.77;;;;;;;6.74;83.29;100005.16;4973306;28;20493;-72
2024/03/01 00:14:42;;;;;;;33.35;14.45;;;;;;;6.70;83.80;99998.66;5012264;28;20436;-72
2024/03/01 00:17:08;;;;;;;30.25;15.18;;;;;;;6.70;84.06;99998.66;5014082;28;20639;-72
2024/03/01 00:19:33;;;;;;;29.60;13.75;;;;;;;6.55;84.95;99995.00;5015329;28;20477;-72
2024/03/01 00:21:59;;;;;;;27.83;13.75;;;;;;;6.51;85.67;99981.63;4996430;28;20039;-72
2024/03/01 00:24:24;;;;;;;33.30;15.80;;;;;;;6.63;85.64;99988.16;5010910;28;20025;-73
2024/03/01 00:26:50;;;;;;;34.45;14.98;;;;;;;6.55;85.86;99984.72;5025512;28;20502;-72
2024/03/01 00:29:15;;;;;;;29.63;14.68;;;;;;;6.49;86.56;99986.13;5016132;28;20029;-72
2024/03/01 00:31:41;;;;;;;33.88;14.73;;;;;;;6.39;87.40;99978.47;5014047;28;20042;-72
2024/03/01 00:34:06;;;;;;;33.03;14.38;;;;;;;6.41;87.70;99976.56;5011766;28;20030;-72
2024/03/01 00:36:32;;;;;;;31.98;15.43;;;;;;;6.43;87.44;99981.56;4994512;28;20042;-72
2024/03/01 00:38:57;;;;;;;31.65;15.32;;;;;;;6.40;87.86;99977.53;5002860;28;20032;-72
2024/03/01 00:41:23;;;;;;;30.88;15.18;;;;;;;6.38;88.20;99978.63;5009778;28;20049;-72
2024/03/01 00:43:49;;;;;;;30.15;15.07;;;;;;;6.35;88.55;99974.59;4995043;28;20037;-72
2024/03/01 00:46:15;;;;;;;32.95;15.30;;;;;;;6.27;89.06;99977.06;5005841;28;20092;-72
2024/03/01 00:48:41;;;;;;;31.42;14.57;;;;;;;6.31;88.68;99975.84;5006041;28;20038;-72
2024/03/01 00:51:07;;;;;;;32.78;14.38;;;;;;;6.25;90.16;99971.25;5007851;28;20038;-72
2024/03/01 00:53:32;;;;;;;34.72;15.65;;;;;;;6.24;90.28;99973.03;4992284;28;20053;-72
2024/03/01 00:55:58;;;;;;;35.78;15.23;;;;;;;6.32;90.08;99964.56;5004902;28;20065;-71
2024/03/01 00:58:23;;;;;;;34.50;15.38;;;;;;;6.25;90.41;99963.53;5007043;28;21222;-72
2024/03/01 01:00:49;;;;;;;35.72;15.63;;;;;;;6.30;90.25;99965.69;4987141;28;20035;-72
2024/03/01 01:03:14;;;;;;;31.55;15.55;;;;;;;6.31;90.52;99962.97;5007251;28;20948;-72
2024/03/01 01:05:40;;;;;;;31.63;15.63;;;;;;;6.32;90.76;99962.00;5007539;28;20049;-72
2024/03/01 01:08:05;;;;;;;31.90;15.70;;;;;;;6.32;91.20;99959.44;4993351;28;20500;-72
2024/03/01 01:10:31;;;;;;;34.22;16.10;;;;;;;6.21;91.92;99957.06;4995713;28;20417;-73
2024/03/01 01:12:57;;;;;;;38.28;15.15;;;;;;;6.32;92.12;99959.44;4993193;28;20566;-72
2024/03/01 01:15:22;;;;;;;28.80;14.13;;;;;;;6.24;92.03;99956.78;5009737;28;20046;-72
2024/03/01 01:17:48;;;;;;;36.38;15.25;;;;;;;6.26;92.74;99959.22;4996736;28;20037;-72
2024/03/01 01:20:13;;;;;;;35.55;15.02;;;;;;;6.29;92.74;99961.47;5006082;28;20874;-72
2024/03/01 01:22:39;;;;;;;29.85;14.95;;;;;;;6.34;91.97;99956.72;4992580;28;20161;-72
2024/03/01 01:25:06;;;;;;;32.05;15.15;;;;;;;6.28;92.64;99967.59;4987463;28;20404;-71
2024/03/01 01:27:31;;;;;;;33.95;14.95;;;;;;;6.31;92.36;99951.84;5008481;28;20204;-72
2024/03/01 01:29:57;;;;;;;33.08;15.70;;;;;;;6.32;92.83;99954.28;5007519;28;20528;-72
2024/03/01 01:32:23;;;;;;;30.73;15.40;;;;;;;6.35;92.91;99943.69;4991432;28;20117;-72
2024/03/01 01:34:49;;;;;;;33.45;15.68;;;;;;;6.31;92.79;99944.13;5009717;28;20098;-72
2024/03/01 01:37:16;;;;;;;35.88;16.17;;;;;;;6.29;93.40;99943.47;5009542;28;20054;-72
2024/03/01 01:39:42;;;;;;;34.38;16.23;;;;;;;6.26;93.45;99939.44;4992942;28;20094;-72
2024/03/01 01:42:07;;;;;;;33.03;15.27;;;;;;;6.18;94.30;99934.22;5005253;28;20061;-72
2024/03/01 01:44:33;;;;;;;34.95;15.07;;;;;;;6.24;94.33;99929.28;5010217;28;20029;-72
2024/03/01 01:46:58;;;;;;;35.35;14.75;;;;;;;6.24;94.39;99929.28;4989877;28;20400;-72
2024/03/01 01:49:26;;;;;;;34.10;14.65;;;;;;;6.23;94.40;99932.00;5007262;28;20030;-72
2024/03/01 01:51:52;;;;;;;30.67;14.73;;;;;;;6.31;94.31;99926.91;5009965;28;20037;-72
2024/03/01 01:54:18;;;;;;;28.13;14.18;;;;;;;6.37;94.20;99921.16;5009424;28;20037;-72
2024/03/01 01:56:45;;;;;;;33.20;14.13;;;;;;;6.42;94.75;99918.97;5010679;28;20046;-72
2024/03/01 01:59:13;;;;;;;31.63;14.80;;;;;;;6.43;94.08;99915.41;5014401;28;20029;-72
2024/03/01 02:01:38;;;;;;;33.95;14.50;;;;;;;6.51;93.67;99924.16;5010084;28;20037;-72
2024/03/01 02:04:04;;;;;;;30.20;13.65;;;;;;;6.61;93.35;99919.69;4994577;28;20096;-72
2024/03/01 02:06:29;;;;;;;33.15;14.23;;;;;;;6.63;93.49;99907.50;5010182;28;20041;-72
2024/03/01 02:08:55;;;;;;;32.00;14.27;;;;;;;6.73;92.75;99903.03;5006605;28;20089;-72
2024/03/01 02:11:21;;;;;;;28.17;13.70;;;;;;;6.75;92.22;99902.91;5013386;28;20091;-72
2024/03/01 02:13:47;;;;;;;27.42;13.43;;;;;;;6.68;92.54;99894.94;4993369;28;20030;-72
2024/03/01 02:16:12;;;;;;;32.25;14.05;;;;;;;6.70;92.69;99897.38;4999522;28;20424;-72
2024/03/01 02:18:37;;;;;;;32.20;13.52;;;;;;;6.73;92.26;99892.72;5010528;28;20029;-72
2024/03/01 02:21:10;;;;;;;30.77;13.85;;;;;;;6.73;92.31;99897.09;4997333;28;20036;-72
2024/03/01 02:23:37;;;;;;;32.97;13.40;;;;;;;6.77;91.86;99896.63;5011163;28;20054;-72
2024/03/01 02:26:04;;;;;;;33.42;13.80;;;;;;;6.75;92.36;99892.59;4994252;28;20517;-72
2024/03/01 02:28:30;;;;;;;35.53;15.23;;;;;;;6.72;92.55;99888.53;5007491;28;20029;-72
2024/03/01 02:30:56;;;;;;;31.00;13.18;;;;;;;6.75;92.47;99877.94;5008009;28;20453;-72
2024/03/01 02:33:21;;;;;;;31.30;13.38;;;;;;;6.67;92.53;99875.31;5024415;28;20060;-72
2024/03/01 02:35:47;;;;;;;32.90;12.77;;;;;;;6.75;92.43;99870.19;5012879;28;20558;-72
2024/03/01 02:38:13;;;;;;;27.92;13.02;;;;;;;6.56;92.91;99868.66;4996009;28;20034;-72
2024/03/01 02:40:38;;;;;;;27.42;14.05;;;;;;;6.48;93.43;99865.22;5007982;28;20037;-72
2024/03/01 02:43:06;;;;;;;27.10;13.05;;;;;;;6.29;94.96;99858.50;5007053;28;20480;-72
2024/03/01 02:45:32;;;;;;;31.73;15.70;;;;;;;6.28;94.71;99860.28;5005191;28;20053;-72
2024/03/01 02:47:57;;;;;;;31.35;15.07;;;;;;;6.22;95.07;99869.41;5013206;28;20033;-72
2024/03/01 02:50:23;;;;;;;37.85;16.77;;;;;;;6.13;95.66;99864.34;5005549;28;20026;-72
2024/03/01 02:52:48;;;;;;;40.15;17.67;;;;;;;6.14;95.73;99859.06;5014588;28;20087;-72
2024/03/01 02:55:20;;;;;;;39.33;17.65;;;;;;;6.09;96.87;99868.19;5011481;28;20115;-72
2024/03/01 02:57:47;;;;;;;38.50;17.00;;;;;;;5.96;97.08;99866.78;5014887;28;20033;-72
2024/03/01 03:00:14;;;;;;;41.88;16.85;;;;;;;5.93;97.82;99872.19;4992381;28;20038;-72
2024/03/01 03:02:39;;;;;;;34.08;16.65;;;;;;;5.80;98.68;99871.75;5007444;28;20042;-72
2024/03/01 03:05:05;;;;;;;39.55;17.70;;;;;;;5.84;98.92;99878.25;5008266;28;20026;-72
2024/03/01 03:07:30;;;;;;;38.22;17.13;;;;;;;5.85;98.86;99877.28;5010409;28;20500;-72
2024/03/01 03:09:56;;;;;;;38.92;16.80;;;;;;;5.83;98.58;99874.84;4992321;28;20278;-72
2024/03/01 03:12:21;;;;;;;35.95;17.33;;;;;;;5.80;98.91;99879.47;4991575;28;20436;-72
2024/03/01 03:14:48;;;;;;;40.38;16.67;;;;;;;5.71;99.50;99875.22;4991283;28;20038;-72
2024/03/01 03:17:13;;;;;;;38.35;18.30;;;;;;;5.63;100.00;99876.78;4978040;28;20113;-72
2024/03/01 03:19:39;;;;;;;36.58;16.90;;;;;;;5.55;100.00;99874.09;5011493;28;20108;-72
2024/03/01 03:22:08;;;;;;;38.25;16.90;;;;;;;5.54;100.00;99880.22;4991273;28;20108;-72
2024/03/01 03:24:34;;;;;;;47.17;18.25;;;;;;;5.57;100.00;99879.09;4992621;28;20065;-71
2024/03/01 03:27:00;;;;;;;39.72;17.42;;;;;;;5.53;100.00;99881.16;4992162;28;20050;-72
2024/03/01 03:29:25;;;;;;;39.38;17.90;;;;;;;5.49;100.00;99881.59;4992788;28;20038;-72
2024/03/01 03:31:51;;;;;;;35.78;16.30;;;;;;;5.53;100.00;99877.78;4992180;28;20037;-72
2024/03/01 03:34:17;;;;;;;38.72;17.17;;;;;;;5.58;100.00;99883.31;5026582;28;20173;-72
2024/03/01 03:36:42;;;;;;;39.08;18.30;;;;;;;5.59;100.00;99878.00;4989830;28;20037;-73
2024/03/01 03:39:09;;;;;;;41.60;17.88;;;;;;;5.56;100.00;99880.88;4990007;28;20041;-72
2024/03/01 03:41:34;;;;;;;35.92;17.33;;;;;;;5.53;100.00;99885.50;5010233;28;20030;-72
2024/03/01 03:44:00;;;;;;;36.25;16.80;;;;;;;5.56;100.00;99880.88;5008805;28;20060;-72
2024/03/01 03:46:25;;;;;;;42.67;19.02;;;;;;;5.57;100.00;99876.53;5010027;28;20093;-72
2024/03/01 03:48:51;;;;;;;35.67;17.17;;;;;;;5.54;100.00;99881.97;5014997;28;20025;-72
2024/03/01 03:51:27;;;;;;;43.33;18.23;;;;;;;5.63;100.00;99881.09;4998806;28;20037;-72
2024/03/01 03:53:53;;;;;;;38.80;17.30;;;;;;;5.50;100.00;99881.47;4999140;28;20076;-72
2024/03/01 03:56:19;;;;;;;40.08;17.83;;;;;;;5.57;100.00;99881.69;5015959;28;20403;-72
2024/03/01 03:58:44;;;;;;;37.22;18.40;;;;;;;5.60;100.00;99887.34;5014615;28;20030;-72
2024/03/01 04:01:10;;;;;;;39.88;18.55;;;;;;;5.58;100.00;99886.69;4997011;28;20034;-72
2024/03/01 04:03:36;;;;;;;38.15;17.60;;;;;;;5.56;100.00;99890.38;4989952;28;20481;-72
2024/03/01 04:06:03;;;;;;;41.13;18.92;;;;;;;5.60;100.00;99892.47;5008554;28;20049;-72
2024/03/01 04:08:29;;;;;;;38.83;18.35;;;;;;;5.59;100.00;99895.19;5015419;28;20033;-72
2024/03/01 04:10:54;;;;;;;40.58;18.95;;;;;;;5.65;100.00;99885.16;4998924;28;20033;-72
2024/03/01 04:13:20;;;;;;;41.33;18.50;;;;;;;5.61;100.00;99891.53;5018129;28;20038;-72
2024/03/01 04:15:45;;;;;;;35.67;17.05;;;;;;;5.63;100.00;99892.22;5014961;28;20044;-72
2024/03/01 04:18:11;;;;;;;35.20;16.30;;;;;;;5.70;100.00;99883.91;5019184;28;20030;-72
2024/03/01 04:20:36;;;;;;;40.80;17.92;;;;;;;5.74;100.00;99882.66;5011421;28;20072;-72
2024/03/01 04:23:04;;;;;;;40.85;18.08;;;;;;;5.64;100.00;99880.16;5016892;28;20447;-72
2024/03/01 04:25:32;;;;;;;38.63;19.08;;;;;;;5.66;100.00;99883.38;5010716;28;21338;-72
2024/03/01 04:27:57;;;;;;;36.70;17.02;;;;;;;5.73;100.00;99887.00;5001417;28;20041;-72
2024/03/01 04:30:23;;;;;;;40.60;18.27;;;;;;;5.75;100.00;99879.13;5015212;28;20033;-72
2024/03/01 04:32:49;;;;;;;35.80;16.55;;;;;;;5.81;100.00;99879.34;5001341;28;20465;-71
2024/03/01 04:35:14;;;;;;;36.72;16.98;;;;;;;5.85;100.00;99879.84;5014898;28;20034;-72
2024/03/01 04:37:40;;;;;;;35.45;17.05;;;;;;;5.87;100.00;99885.66;5017184;28;20032;-72
2024/03/01 04:40:05;;;;;;;37.08;17.33;;;;;;;5.87;100.00;99882.28;4998709;28;20037;-72
2024/03/01 04:42:31;;;;;;;36.05;16.85;;;;;;;5.89;100.00;99886.31;4977650;28;20034;-73
2024/03/01 04:44:56;;;;;;;37.78;17.33;;;;;;;5.91;100.00;99883.59;4981285;28;20048;-72
2024/03/01 04:47:22;;;;;;;36.20;16.45;;;;;;;5.94;100.00;99896.97;5015790;28;20037;-72
2024/03/01 04:49:47;;;;;;;30.58;15.38;;;;;;;6.03;100.00;99887.59;5014627;28;20037;-72
2024/03/01 04:52:13;;;;;;;36.42;15.30;;;;;;;6.07;100.00;99885.53;5013196;28;20048;-72
2024/03/01 04:54:38;;;;;;;36.85;15.98;;;;;;;6.10;100.00;99887.81;5017429;28;20022;-72
2024/03/01 04:57:06;;;;;;;38.35;15.52;;;;;;;6.08;100.00;99889.72;5014191;28;20030;-72
2024/03/01 04:59:38;;;;;;;35.63;15.15;;;;;;;6.21;100.00;99890.16;5010394;28;20092;-71
2024/03/01 05:02:07;;;;;;;32.65;15.45;;;;;;;6.25;100.00;99901.75;5012173;28;20096;-72
2024/03/01 05:04:34;;;;;;;33.28;14.63;;;;;;;6.26;100.00;99907.72;5012716;28;20116;-72
2024/03/01 05:07:00;;;;;;;31.88;14.45;;;;;;;6.20;100.00;99904.00;4992492;28;20061;-72
2024/03/01 05:09:26;;;;;;;34.70;16.33;;;;;;;6.30;100.00;99912.41;5013636;28;20041;-72
2024/03/01 05:11:51;;;;;;;35.05;15.18;;;;;;;6.28;100.00;99914.34;4975783;28;20035;-72
2024/03/01 05:14:17;;;;;;;33.67;14.20;;;;;;;6.28;100.00;99913.53;4993631;28;20030;-72
2024/03/01 05:16:42;;;;;;;33.75;15.63;;;;;;;6.30;100.00;99920.16;5015606;28;20679;-72
2024/03/01 05:19:07;;;;;;;34.13;14.88;;;;;;;6.29;100.00;99921.13;4994247;28;20550;-71
2024/03/01 05:21:33;;;;;;;36.00;17.98;;;;;;;6.26;100.00;99926.56;4994532;28;20575;-72
2024/03/01 05:23:58;;;;;;;33.63;17.17;;;;;;;6.32;100.00;99931.09;5009527;28;20701;-72
2024/03/01 05:26:25;;;;;;;39.28;18.00;;;;;;;6.34;100.00;99939.47;4993748;28;20050;-71
2024/03/01 05:28:51;;;;;;;34.67;15.23;;;;;;;6.38;100.00;99953.66;5004010;28;20406;-71
2024/03/01 05:31:18;;;;;;;32.33;15.98;;;;;;;6.30;100.00;99952.81;5010023;28;20041;-71
2024/03/01 05:33:43;;;;;;;33.13;16.23;;;;;;;6.31;100.00;99947.53;5010702;28;20116;-71
2024/03/01 05:36:10;;;;;;;33.05;15.80;;;;;;;6.29;100.00;99954.59;5026371;28;20050;-71
2024/03/01 05:38:35;;;;;;;28.95;13.90;;;;;;;6.27;100.00;99959.06;4994253;28;20492;-71
2024/03/01 05:41:00;;;;;;;23.73;12.18;;;;;;;6.33;100.00;99955.91;5008437;28;20049;-71
2024/03/01 05:43:26;;;;;;;30.05;11.75;;;;;;;6.46;100.00;99960.69;4997928;28;20042;-71
2024/03/01 05:45:51;;;;;;;21.83;10.25;;;;;;;6.53;100.00;99976.31;4991336;28;20033;-71
2024/03/01 05:48:17;;;;;;;21.98;10.30;;;;;;;6.69;100.00;99975.66;4994630;28;20041;-71
2024/03/01 05:50:42;;;;;;;12.13;6.18;;;;;;;6.67;100.00;99982.69;5012808;28;20404;-71
2024/03/01 05:53:14;;;;;;;6.93;3.90;;;;;;;6.62;100.00;99985.72;5000834;28;20034;-72
2024/03/01 05:55:42;;;;;;;4.15;2.53;;;;;;;6.63;100.00;99992.53;4998187;28;20038;-72
2024/03/01 05:58:09;;;;;;;3.80;2.17;;;;;;;6.58;100.00;99994.72;4992556;28;20029;-71
2024/03/01 06:00:35;;;;;;;2.83;1.90;;;;;;;6.65;100.00;99993.19;4975361;28;20492;-71
2024/03/01 06:03:01;;;;;;;2.83;1.80;;;;;;;6.64;100.00;100012.16;5013086;28;20029;-71
2024/03/01 06:05:26;;;;;;;2.63;1.52;;;;;;;6.69;100.00;100007.38;5007711;28;20089;-72
2024/03/01 06:07:51;;;;;;;2.45;1.77;;;;;;;6.59;100.00;100017.78;4997234;28;20032;-71
2024/03/01 06:10:17;;;;;;;2.50;1.98;;;;;;;6.49;100.00;100017.03;4994912;28;20033;-70
2024/03/01 06:12:43;;;;;;;3.30;1.98;;;;;;;6.48;100.00;100023.16;5014212;28;20508;-70
2024/03/01 06:15:09;;;;;;;3.13;1.75;;;;;;;6.54;100.00;100026.91;5009152;28;20029;-70
2024/03/01 06:17:35;;;;;;;5.78;2.38;;;;;;;6.40;100.00;100030.78;5008192;28;20492;-71
2024/03/01 06:20:01;;;;;;;3.58;2.30;;;;;;;6.37;100.00;100026.75;4990090;28;20034;-70
2024/03/01 06:22:30;;;;;;;4.28;2.50;;;;;;;6.25;100.00;100030.47;5015180;28;20647;-70
2024/03/01 06:24:55;;;;;;;4.93;3.00;;;;;;;6.27;100.00;100035.50;4990925;28;20417;-70
2024/03/01 06:27:21;;;;;;;5.35;3.30;;;;;;;6.32;100.00;100044.41;5012059;28;20026;-70
2024/03/01 06:29:47;;;;;;;4.47;2.70;;;;;;;6.31;100.00;100047.94;5018279;28;20048;-71
2024/03/01 06:32:12;;;;;;;8.43;5.05;;;;;;;6.35;100.00;100051.03;5012064;28;20037;-70
2024/03/01 06:34:38;;;;;;;7.45;4.53;;;;;;;6.40;100.00;100064.25;5015153;28;20038;-70
2024/03/01 06:37:03;;;;;;;7.93;5.28;;;;;;;6.30;100.00;100072.06;4996382;28;20041;-70
2024/03/01 06:39:29;;;;;;;8.48;5.57;;;;;;;6.34;100.00;100075.16;5002505;28;20038;-70
2024/03/01 06:41:55;;;;;;;8.55;5.63;;;;;;;6.28;100.00;100071.41;5014543;28;20038;-70
2024/03/01 06:44:24;;;;;;;9.30;6.57;;;;;;;6.35;100.00;100079.38;5013357;28;20041;-70
2024/03/01 06:46:53;;;;;;;9.77;6.25;;;;;;;6.28;100.00;100083.47;5009847;28;20496;-70
2024/03/01 06:49:19;;;;;;;9.20;5.90;;;;;;;6.29;100.00;100082.50;5009322;28;20484;-70
2024/03/01 06:51:45;;;;;;;9.35;6.30;;;;;;;6.27;100.00;100089.56;4997140;28;20034;-71
2024/03/01 06:54:10;;;;;;;11.70;6.50;;;;;;;6.28;100.00;100092.00;4997276;28;20125;-72
2024/03/01 06:56:42;;;;;;;12.77;7.82;;;;;;;6.32;100.00;100083.03;4976892;28;20130;-70
2024/03/01 06:59:08;;;;;;;12.52;7.10;;;;;;;6.24;100.00;100088.09;5006326;28;20038;-71
2024/03/01 07:01:34;;;;;;;54.22;26.33;;;;;;;6.24;100.00;100085.53;5012461;28;20042;-71
2024/03/01 07:04:00;;;;;;;31.30;13.90;;;;;;;6.22;100.00;100090.00;5010538;28;20040;-71
2024/03/01 07:06:27;;;;;;;11.73;7.35;;;;;;;6.33;100.00;100091.56;4993791;28;20034;-71
2024/03/01 07:08:52;;;;;;;163.93;76.85;;;;;;;6.23;100.00;100100.16;5009551;28;20054;-71
2024/03/01 07:11:18;;;;;;;37.60;19.25;;;;;;;6.32;100.00;100108.78;5007930;28;20042;-71
2024/03/01 07:13:43;;;;;;;12.57;7.47;;;;;;;6.33;100.00;100107.84;4977324;28;21397;-70
2024/03/01 07:16:09;;;;;;;19.10;10.93;;;;;;;6.34;100.00;100098.34;4991690;28;20049;-70
2024/03/01 07:18:34;;;;;;;11.65;6.15;;;;;;;6.37;100.00;100103.22;5008334;28;20041;-71
2024/03/01 07:21:00;;;;;;;42.55;22.73;;;;;;;6.46;100.00;100107.50;4996306;28;20034;-71
2024/03/01 07:23:25;;;;;;;13.77;9.30;;;;;;;6.37;100.00;100109.16;5002598;28;20034;-71
2024/03/01 07:25:51;;;;;;;37.15;18.60;;;;;;;6.31;100.00;100102.03;5023461;28;20041;-70
2024/03/01 07:28:16;;;;;;;24.52;12.93;;;;;;;6.34;100.00;100109.44;4993540;28;20052;-70
2024/03/01 07:30:43;;;;;;;12.25;7.00;;;;;;;6.31;100.00;100109.75;4990666;28;20037;-71
2024/03/01 07:33:08;;;;;;;9.73;6.18;;;;;;;6.45;100.00;100111.00;5014646;28;20084;-71
2024/03/01 07:35:34;;;;;;;36.22;21.40;;;;;;;6.44;100.00;100111.94;5013377;28;20045;-71
2024/03/01 07:37:59;;;;;;;6.65;4.05;;;;;;;6.50;100.00;100113.97;5011419;28;20026;-70
2024/03/01 07:40:25;;;;;;;11.10;6.68;;;;;;;6.48;100.00;100112.47;5008173;28;20041;-71
2024/03/01 07:42:50;;;;;;;45.15;21.92;;;;;;;6.58;100.00;100114.03;5010144;28;20034;-72
2024/03/01 07:45:16;;;;;;;29.27;14.88;;;;;;;6.54;100.00;100112.72;5005584;28;20185;-71
2024/03/01 07:47:44;;;;;;;40.58;23.58;;;;;;;6.54;100.00;100117.06;5014620;28;20500;-71
2024/03/01 07:50:10;;;;;;;9.75;5.78;;;;;;;6.53;100.00;100128.31;4989357;28;20026;-71
2024/03/01 07:52:36;;;;;;;8.38;5.03;;;;;;;6.56;100.00;100122.88;5008474;28;20030;-71
2024/03/01 07:55:02;;;;;;;12.98;7.50;;;;;;;6.49;100.00;100127.78;5010307;28;20499;-70
2024/03/01 07:57:27;;;;;;;27.13;13.10;;;;;;;6.45;100.00;100131.59;5013604;28;20038;-71
2024/03/01 07:59:53;;;;;;;17.27;9.48;;;;;;;6.41;100.00;100123.34;5005483;28;20381;-71
2024/03/01 08:02:18;;;;;;;8.75;5.50;;;;;;;6.45;100.00;100123.88;4996110;28;20982;-71
2024/03/01 08:04:44;;;;;;;25.65;12.98;;;;;;;6.58;100.00;100123.53;4989812;28;20603;-71
2024/03/01 08:07:13;;;;;;;8.75;5.15;;;;;;;6.59;100.00;100122.56;5021713;28;20030;-71
2024/03/01 08:09:40;;;;;;;8.27;4.90;;;;;;;6.63;100.00;100122.13;5007687;28;20791;-71
2024/03/01 08:12:13;;;;;;;11.73;7.10;;;;;;;6.63;100.00;100121.34;5009844;28;20030;-71
2024/03/01 08:14:38;;;;;;;13.68;7.60;;;;;;;6.78;100.00;100137.91;4993301;28;20156;-70
2024/03/01 08:17:06;;;;;;;6.82;3.08;;;;;;;6.76;100.00;100132.09;5013329;28;20444;-71
2024/03/01 08:19:37;;;;;;;5.47;3.00;;;;;;;6.72;100.00;100140.25;4995540;28;20057;-71
2024/03/01 08:22:13;;;;;;;7.45;4.40;;;;;;;6.67;100.00;100142.44;4990763;28;20179;-70
2024/03/01 08:24:41;;;;;;;5.50;3.42;;;;;;;6.73;99.94;100144.44;4996349;28;20046;-71
2024/03/01 08:27:08;;;;;;;7.93;2.92;;;;;;;6.69;100.00;100140.56;5008103;28;20037;-70
2024/03/01 08:29:34;;;;;;;7.18;3.20;;;;;;;6.70;99.52;100147.31;5007746;28;20029;-71
2024/03/01 08:32:01;;;;;;;4.90;2.95;;;;;;;6.69;99.18;100151.66;4988885;28;20030;-71
2024/03/01 08:34:37;;;;;;;8.30;3.70;;;;;;;6.74;98.57;100151.22;5023154;28;20116;-71
2024/03/01 08:37:04;;;;;;;13.43;6.90;;;;;;;6.74;97.98;100156.34;5011655;28;20038;-71
2024/03/01 08:39:30;;;;;;;11.60;6.47;;;;;;;6.69;96.14;100161.97;4992369;28;20029;-71
2024/03/01 08:42:00;;;;;;;6.32;4.00;;;;;;;6.73;94.48;100157.34;4993805;28;20277;-71
2024/03/01 08:44:50;;;;;;;8.20;4.93;;;;;;;6.68;93.92;100154.38;5015126;28;20030;-71
2024/03/01 08:47:25;;;;;;;6.45;3.15;;;;;;;6.75;93.12;100160.56;4997545;28;20447;-71
2024/03/01 08:49:53;;;;;;;5.82;2.42;;;;;;;6.91;91.74;100155.56;5015066;28;20030;-71
2024/03/01 08:52:39;;;;;;;5.40;2.60;;;;;;;7.22;89.75;100153.41;4989763;28;20532;-71
2024/03/01 08:55:10;;;;;;;5.65;2.50;;;;;;;7.49;85.55;100161.97;5019483;28;20022;-71
2024/03/01 08:57:39;;;;;;;6.32;2.70;;;;;;;7.59;84.16;100164.44;5021337;28;20144;-71
2024/03/01 09:00:26;;;;;;;6.68;2.75;;;;;;;7.54;83.34;100162.31;5011021;28;20029;-71
2024/03/01 09:02:52;;;;;;;4.20;2.72;;;;;;;7.39;85.34;100171.56;5016468;28;20091;-71
2024/03/01 09:05:18;;;;;;;5.72;2.67;;;;;;;7.44;85.23;100173.69;4999692;28;20025;-71
2024/03/01 09:07:44;;;;;;;9.13;2.65;;;;;;;7.69;84.13;100166.94;4994728;28;20026;-71
2024/03/01 09:10:21;;;;;;;3.65;2.47;;;;;;;7.65;82.91;100168.19;5014255;28;20030;-71
2024/03/01 09:12:47;;;;;;;6.70;2.88;;;;;;;7.50;83.84;100168.75;5005663;28;20049;-71
2024/03/01 09:15:17;;;;;;;7.45;2.90;;;;;;;7.44;84.86;100177.09;5019280;28;20486;-71
2024/03/01 09:17:42;;;;;;;4.72;2.65;;;;;;;7.47;84.32;100169.03;4996853;28;20034;-71
2024/03/01 09:20:20;;;;;;;7.30;3.13;;;;;;;7.57;85.14;100174.94;5015354;28;20059;-71
2024/03/01 09:22:45;;;;;;;6.63;3.50;;;;;;;7.59;85.46;100173.00;5008810;28;20046;-71
2024/03/01 09:25:57;;;;;;;8.05;3.60;;;;;;;7.82;84.06;100169.09;5000466;28;20036;-71
2024/03/01 09:28:24;;;;;;;8.10;3.60;;;;;;;7.95;85.17;100172.09;5005529;28;20046;-71
2024/03/01 09:30:52;;;;;;;7.03;4.45;;;;;;;7.95;85.75;100175.47;5010574;28;20087;-71
2024/03/01 09:33:19;;;;;;;9.20;3.70;;;;;;;7.91;86.28;100169.00;5009990;28;20033;-71
2024/03/01 09:35:45;;;;;;;10.45;4.22;;;;;;;7.95;87.49;100169.50;5012344;28;20033;-71
2024/03/01 09:38:13;;;;;;;7.45;3.70;;;;;;;8.07;86.45;100167.44;5013886;28;20040;-71
2024/03/01 09:40:49;;;;;;;10.18;4.30;;;;;;;7.90;86.86;100179.47;4997039;28;20496;-71
2024/03/01 09:43:36;;;;;;;11.73;4.32;;;;;;;7.89;87.78;100176.09;5002676;28;20096;-71
2024/03/01 09:46:36;;;;;;;9.85;4.28;;;;;;;8.10;87.14;100165.38;5011263;28;20054;-71
2024/03/01 09:49:26;;;;;;;14.63;4.25;;;;;;;8.18;87.08;100177.50;5008509;28;20114;-71
2024/03/01 09:52:12;;;;;;;9.85;4.38;;;;;;;8.33;84.49;100162.22;5008238;28;20057;-71
2024/03/01 09:54:51;;;;;;;7.75;4.25;;;;;;;8.37;84.79;100158.34;4990920;28;20034;-71
2024/03/01 09:57:29;;;;;;;7.70;3.55;;;;;;;8.34;85.79;100161.25;5013656;28;20038;-71
2024/03/01 10:00:14;;;;;;;5.70;3.80;;;;;;;8.32;83.79;100166.56;5014390;28;20080;-71
2024/03/01 10:02:55;;;;;;;11.13;4.30;;;;;;;8.25;85.83;100167.34;4999312;28;20042;-71
2024/03/01 10:05:50;;;;;;;13.43;4.00;;;;;;;8.42;85.32;100183.75;5008150;28;20030;-71
2024/03/01 10:08:32;;;;;;;7.60;4.47;;;;;;;8.28;85.59;100169.63;4991155;28;20100;-71
2024/03/01 10:11:26;;;;;;;7.45;3.80;;;;;;;8.33;83.99;100162.22;4993097;28;20046;-71
2024/03/01 10:14:02;;;;;;;20.27;9.07;;;;;;;8.18;84.75;100173.13;5011186;28;20034;-71
2024/03/01 10:16:45;;;;;;;8.63;3.80;;;;;;;8.02;85.53;100167.91;4993878;28;20042;-71
2024/03/01 10:19:55;;;;;;;6.43;2.80;;;;;;;8.08;84.50;100166.47;4993575;28;20484;-71
2024/03/01 10:22:59;;;;;;;6.63;3.10;;;;;;;8.12;84.51;100154.88;4969782;28;20091;-71
2024/03/01 10:25:44;;;;;;;5.00;2.10;;;;;;;8.08;83.02;100151.81;4973049;28;20043;-71
2024/03/01 10:28:38;;;;;;;9.38;2.90;;;;;;;8.19;83.45;100141.19;4998283;28;20037;-71
2024/03/01 10:31:28;;;;;;;7.18;2.47;;;;;;;8.33;83.27;100128.63;5007634;28;20069;-71
2024/03/01 10:34:01;;;;;;;5.20;2.13;;;;;;;8.55;81.68;100128.06;4996872;28;20091;-72
2024/03/01 10:36:44;;;;;;;4.43;1.60;;;;;;;8.65;79.35;100130.50;5007682;28;20053;-71
2024/03/01 10:39:46;;;;;;;2.97;1.15;;;;;;;8.79;77.69;100131.66;4985948;28;20036;-71
2024/03/01 10:42:25;;;;;;;2.17;1.20;;;;;;;8.84;77.38;100134.56;4983982;28;20045;-71
2024/03/01 10:45:17;;;;;;;3.63;1.38;;;;;;;8.83;75.50;100120.00;5006371;28;20515;-72
2024/03/01 10:47:43;;;;;;;3.03;1.27;;;;;;;9.08;76.01;100126.00;5023324;28;20080;-72
2024/03/01 10:50:20;;;;;;;3.25;1.00;;;;;;;9.10;73.43;100107.75;5011858;28;20057;-72
2024/03/01 10:53:15;;;;;;;1.45;0.90;;;;;;;9.27;74.63;100113.72;5011240;28;20650;-71
2024/03/01 10:55:46;;;;;;;1.33;0.80;;;;;;;9.30;74.24;100108.19;5010669;28;20567;-72
2024/03/01 10:58:46;;;;;;;2.08;1.30;;;;;;;9.18;73.07;100112.09;5026726;28;20033;-72
2024/03/01 11:01:22;;;;;;;3.22;1.00;;;;;;;9.13;73.18;100108.19;5014417;28;20162;-72
2024/03/01 11:03:57;;;;;;;4.07;0.90;;;;;;;8.96;73.81;100110.00;5015049;28;20041;-71
2024/03/01 11:06:34;;;;;;;2.28;0.90;;;;;;;8.95;73.60;100102.41;5014139;28;20046;-72
2024/03/01 11:09:14;;;;;;;1.40;0.80;;;;;;;9.06;74.61;100107.25;5021319;28;20061;-72
2024/03/01 11:11:56;;;;;;;3.90;1.33;;;;;;;9.07;74.33;100098.53;4982616;28;20053;-71
2024/03/01 11:14:24;;;;;;;3.55;0.80;;;;;;;9.00;75.31;100097.53;5003640;28;20034;-72
2024/03/01 11:16:53;;;;;;;1.17;0.80;;;;;;;9.21;74.35;100084.13;4996599;28;20542;-72
2024/03/01 11:19:24;;;;;;;2.00;1.08;;;;;;;9.37;73.62;100080.69;4994589;28;20139;-72
2024/03/01 11:22:16;;;;;;;2.03;0.80;;;;;;;9.41;72.15;100086.34;5008078;28;20102;-72
2024/03/01 11:24:49;;;;;;;3.78;0.85;;;;;;;9.47;73.40;100078.72;4998737;28;20148;-71
2024/03/01 11:27:23;;;;;;;1.48;0.70;;;;;;;9.46;73.29;100079.69;4995420;28;20045;-71
2024/03/01 11:29:59;;;;;;;2.38;1.02;;;;;;;9.61;73.62;100066.09;5009870;28;20029;-72
2024/03/01 11:32:27;;;;;;;2.72;0.73;;;;;;;9.64;72.82;100063.13;4994512;28;20507;-72